Time;durP1;ratioP1;P1;durP2;ratioP2;P2;SDS_P1;SDS_P2;PMS_P1;PMS_P2;Temp;Humidity;BMP_temperature;BMP_pressure;BME280_temperature;BME280_humidity;BME280_pressure;Samples;Min_cycle;Max_cycle;Signal;HPM_P1;HPM_P2
2023/09/08 00:00:09;;;;;;;1.50;1.50;;;24.70;99.90;;;25.15;72.00;101531.34;5050141;28;20064;-70
2023/09/08 00:02:37;;;;;;;1.50;1.50;;;24.80;99.90;;;25.04;72.38;101536.47;5054107;28;20054;-69
2023/09/08 00:05:06;;;;;;;2.28;2.17;;;24.70;99.90;;;25.18;72.09;101525.78;5050082;28;20037;-69
2023/09/08 00:07:35;;;;;;;1.90;1.88;;;24.80;99.90;;;25.14;72.19;101526.91;5046492;28;20063;-70
2023/09/08 00:10:03;;;;;;;1.70;1.70;;;24.80;99.90;;;25.15;71.98;101536.78;5041905;28;20095;-70
2023/09/08 00:12:33;;;;;;;1.55;1.55;;;24.80;99.90;;;25.01;72.56;101544.75;5051708;28;20540;-70
2023/09/08 00:15:02;;;;;;;1.80;1.77;;;24.70;99.90;;;24.98;72.50;101539.50;5042372;28;20049;-70
2023/09/08 00:17:30;;;;;;;1.70;1.70;;;24.60;99.90;;;25.02;72.73;101536.56;5044674;28;20296;-70
2023/09/08 00:19:58;;;;;;;1.70;1.70;;;24.60;99.90;;;25.01;72.62;101540.22;5050678;28;20045;-70
2023/09/08 00:22:27;;;;;;;2.60;2.40;;;24.60;99.90;;;24.74;73.14;101535.38;5039540;28;20560;-70
2023/09/08 00:24:56;;;;;;;2.10;2.00;;;24.50;99.90;;;24.76;73.82;101539.78;5048728;28;20181;-70
2023/09/08 00:27:24;;;;;;;2.13;2.03;;;24.40;99.90;;;24.74;73.69;101535.38;5047196;28;20106;-70
2023/09/08 00:29:54;;;;;;;1.80;1.80;;;24.40;99.90;;;24.77;73.86;101532.53;5040565;28;20042;-70
2023/09/08 00:32:22;;;;;;;1.77;1.75;;;24.40;99.90;;;24.89;73.80;101535.44;5052394;28;20068;-70
2023/09/08 00:34:50;;;;;;;2.00;1.90;;;24.40;99.90;;;24.65;73.86;101535.84;5042452;28;20084;-70
2023/09/08 00:37:19;;;;;;;1.60;1.60;;;24.30;99.90;;;24.52;74.70;101538.31;5055619;28;20037;-70
2023/09/08 00:39:48;;;;;;;2.00;1.90;;;24.20;99.90;;;24.34;75.13;101535.66;5039663;28;20052;-71
2023/09/08 00:42:16;;;;;;;2.60;2.40;;;24.00;99.90;;;24.14;76.31;101539.34;5040117;28;20498;-70
2023/09/08 00:44:44;;;;;;;2.13;2.03;;;23.80;99.90;;;23.95;77.20;101538.47;5051299;28;20045;-70
2023/09/08 00:47:14;;;;;;;1.60;1.60;;;23.60;99.90;;;23.96;77.47;101540.25;5048042;28;20112;-70
2023/09/08 00:49:43;;;;;;;3.60;3.30;;;23.50;99.90;;;23.82;78.00;101530.09;5039514;28;20049;-70
2023/09/08 00:52:11;;;;;;;2.45;2.35;;;23.50;99.90;;;23.91;78.04;101539.56;5050481;28;20483;-69
2023/09/08 00:54:40;;;;;;;2.10;2.00;;;23.50;99.90;;;23.94;77.98;101537.59;5044319;28;20041;-70
2023/09/08 00:57:10;;;;;;;1.60;1.60;;;23.50;99.90;;;24.10;77.53;101544.03;5050997;28;20049;-69
2023/09/08 00:59:39;;;;;;;2.10;2.00;;;23.60;99.90;;;24.18;77.15;101531.03;5051872;28;20055;-70
2023/09/08 01:02:07;;;;;;;1.70;1.70;;;23.70;99.90;;;24.31;77.04;101541.22;5040654;28;20112;-69
2023/09/08 01:04:40;;;;;;;1.60;1.60;;;23.80;99.90;;;24.32;76.73;101538.44;5050930;28;20054;-70
2023/09/08 01:07:10;;;;;;;1.85;1.80;;;23.90;99.90;;;24.38;76.24;101545.38;5049248;28;20057;-69
2023/09/08 01:09:39;;;;;;;1.92;1.83;;;24.00;99.90;;;24.42;76.27;101542.44;5039071;28;20045;-69
2023/09/08 01:12:09;;;;;;;1.60;1.60;;;24.00;99.90;;;24.47;75.75;101543.06;5050705;28;20459;-70
2023/09/08 01:14:37;;;;;;;4.82;2.60;;;24.10;99.90;;;24.29;76.06;101537.72;5045564;28;20053;-70
2023/09/08 01:17:05;;;;;;;1.80;1.75;;;23.90;99.90;;;24.11;76.96;101534.13;5049395;28;20085;-70
2023/09/08 01:19:35;;;;;;;1.67;1.67;;;23.70;99.90;;;24.05;77.52;101537.13;5050852;28;20127;-69
2023/09/08 01:22:36;;;;;;;2.20;2.10;;;23.60;99.90;;;24.04;77.39;101536.22;5040397;28;20056;-70
2023/09/08 01:25:20;;;;;;;1.98;1.88;;;23.60;99.90;;;24.09;77.23;101539.59;5054446;28;20541;-70
2023/09/08 01:27:52;;;;;;;1.67;1.67;;;23.70;99.90;;;24.02;77.46;101538.13;5040175;28;20485;-70
2023/09/08 01:30:22;;;;;;;1.92;1.83;;;23.60;99.90;;;24.11;77.49;101539.53;5044506;28;20041;-70
2023/09/08 01:32:51;;;;;;;2.75;2.65;;;23.60;99.90;;;24.16;77.27;101535.63;5049354;28;20379;-70
2023/09/08 01:35:20;;;;;;;2.00;1.90;;;23.70;99.90;;;23.84;77.87;101522.81;5038120;28;20411;-70
2023/09/08 01:37:50;;;;;;;1.73;1.73;;;23.50;99.90;;;24.00;78.22;101531.03;5047947;28;20104;-70
2023/09/08 01:40:19;;;;;;;1.60;1.60;;;23.40;99.90;;;24.06;77.83;101531.63;5045996;28;20087;-70
2023/09/08 01:42:48;;;;;;;1.70;1.70;;;23.50;99.90;;;23.94;77.91;101515.97;5054645;28;20106;-70
2023/09/08 01:45:17;;;;;;;1.70;1.70;;;23.50;99.90;;;24.07;77.82;101530.69;5050958;28;20072;-70
2023/09/08 01:47:45;;;;;;;1.60;1.60;;;23.60;99.90;;;24.05;78.51;101529.88;5042003;28;20041;-70
2023/09/08 01:50:15;;;;;;;1.55;1.55;;;23.50;99.90;;;23.93;78.81;101522.34;5043235;28;20053;-70
2023/09/08 01:52:43;;;;;;;1.70;1.70;;;23.40;99.90;;;23.91;78.58;101520.66;5050738;28;20044;-70
2023/09/08 01:55:12;;;;;;;2.00;1.90;;;23.40;99.90;;;23.84;78.43;101522.81;5038177;28;20064;-70
2023/09/08 01:57:41;;;;;;;2.05;1.95;;;23.30;99.90;;;23.77;78.92;101521.31;5049830;28;20120;-70
2023/09/08 02:00:11;;;;;;;1.60;1.60;;;23.30;99.90;;;23.58;79.52;101520.47;5045685;28;20379;-70
2023/09/08 02:02:40;;;;;;;2.45;2.35;;;23.10;99.90;;;23.58;79.56;101516.88;5038111;28;20307;-70
2023/09/08 02:05:09;;;;;;;2.35;2.25;;;23.10;99.90;;;23.56;79.92;101516.97;5049699;28;20106;-70
2023/09/08 02:07:37;;;;;;;2.22;2.13;;;23.00;99.90;;;23.61;79.62;101514.94;5041109;28;20102;-70
2023/09/08 02:10:07;;;;;;;1.70;1.70;;;23.10;99.90;;;23.57;80.05;101516.03;5053977;28;20406;-70
2023/09/08 02:12:35;;;;;;;1.75;1.75;;;23.10;99.90;;;23.65;79.59;101521.94;5037912;28;20051;-70
2023/09/08 02:15:07;;;;;;;2.55;2.45;;;23.10;99.90;;;23.64;79.34;101512.06;5048654;28;20477;-70
2023/09/08 02:17:35;;;;;;;2.35;2.25;;;23.10;99.90;;;23.51;79.54;101505.50;5058802;28;20148;-70
2023/09/08 02:20:04;;;;;;;2.10;2.00;;;23.10;99.90;;;23.60;79.51;101510.47;5068669;28;20072;-70
2023/09/08 02:22:33;;;;;;;1.70;1.70;;;23.10;99.90;;;23.65;79.36;101510.25;5036699;28;20045;-70
2023/09/08 02:25:01;;;;;;;2.10;2.00;;;23.10;99.90;;;23.70;78.96;101509.06;5048681;28;20097;-70
2023/09/08 02:27:30;;;;;;;1.75;1.75;;;23.20;99.90;;;23.81;78.40;101508.56;5042448;28;20049;-69
2023/09/08 02:29:59;;;;;;;2.05;1.95;;;23.30;99.90;;;23.83;78.09;101512.03;5054512;28;20080;-70
2023/09/08 02:32:30;;;;;;;2.17;2.08;;;23.30;99.90;;;23.83;77.86;101507.53;5051347;28;20049;-70
2023/09/08 02:34:59;;;;;;;1.85;1.77;;;23.40;99.90;;;23.90;77.56;101511.69;5046498;28;20491;-70
2023/09/08 02:37:27;;;;;;;2.50;2.40;;;23.40;99.90;;;23.83;77.68;101506.63;5044747;28;20548;-70
2023/09/08 02:39:56;;;;;;;2.15;2.05;;;23.40;99.90;;;23.70;78.18;101506.38;5048835;28;20406;-70
2023/09/08 02:42:24;;;;;;;2.08;1.98;;;23.20;99.90;;;23.58;78.71;101506.97;5049580;28;20041;-70
2023/09/08 02:44:53;;;;;;;2.67;2.58;;;23.10;99.90;;;23.58;78.71;101508.78;5039663;28;20041;-70
2023/09/08 02:47:21;;;;;;;1.90;1.80;;;23.10;99.90;;;23.57;78.96;101513.31;5053458;28;20128;-70
2023/09/08 02:49:52;;;;;;;2.08;1.98;;;23.10;99.90;;;23.60;78.65;101521.28;5048924;28;20410;-70
2023/09/08 02:52:20;;;;;;;2.03;1.93;;;23.10;99.90;;;23.65;78.55;101513.84;5037350;28;20044;-70
2023/09/08 02:54:49;;;;;;;1.92;1.83;;;23.10;99.90;;;23.71;78.18;101508.09;5045140;28;20757;-70
2023/09/08 02:57:17;;;;;;;2.67;2.53;;;23.30;99.90;;;23.70;78.31;101500.97;5045186;28;20053;-70
2023/09/08 02:59:51;;;;;;;1.88;1.80;;;23.30;99.90;;;23.56;78.11;101468.34;5048806;28;20100;-70
2023/09/08 03:02:19;;;;;;;2.05;1.95;;;23.30;99.90;;;23.80;78.05;101509.50;5038296;28;20129;-70
2023/09/08 03:04:48;;;;;;;2.00;1.90;;;23.40;99.90;;;23.84;77.76;101508.41;5044179;28;20043;-70
2023/09/08 03:07:18;;;;;;;2.28;2.17;;;23.40;99.90;;;23.91;77.77;101508.03;5046064;28;20110;-69
2023/09/08 03:09:46;;;;;;;2.00;1.90;;;23.50;99.90;;;23.96;77.44;101508.66;5052539;28;20068;-70
2023/09/08 03:12:16;;;;;;;1.92;1.83;;;23.50;99.90;;;23.97;77.56;101513.13;5063044;28;20037;-70
2023/09/08 03:14:44;;;;;;;1.67;1.67;;;23.60;99.90;;;23.99;77.11;101500.41;5042598;28;20042;-70
2023/09/08 03:17:13;;;;;;;2.13;2.03;;;23.60;99.90;;;24.05;76.78;101504.69;5054472;28;20038;-70
2023/09/08 03:19:45;;;;;;;1.88;1.83;;;23.60;99.90;;;24.07;76.76;101503.66;5047942;28;20091;-70
2023/09/08 03:22:14;;;;;;;1.90;1.80;;;23.70;99.90;;;23.98;76.78;101495.94;5037865;28;20053;-70
2023/09/08 03:24:44;;;;;;;1.88;1.80;;;23.60;99.90;;;23.97;77.01;101502.31;5052096;28;20045;-70
2023/09/08 03:27:14;;;;;;;2.27;2.17;;;23.60;99.90;;;23.96;77.08;101503.25;5037099;28;20503;-70
2023/09/08 03:29:42;;;;;;;1.90;1.80;;;23.50;99.90;;;23.93;76.71;101495.31;5048514;28;20303;-70
2023/09/08 03:32:11;;;;;;;1.73;1.73;;;23.50;99.90;;;23.81;77.46;101495.06;5040154;28;20061;-70
2023/09/08 03:34:40;;;;;;;2.88;2.53;;;23.40;99.90;;;23.78;77.55;101487.09;5048092;28;20049;-70
2023/09/08 03:37:09;;;;;;;1.88;1.80;;;23.40;99.90;;;23.72;77.69;101488.25;5047329;28;20044;-70
2023/09/08 03:39:38;;;;;;;2.85;2.70;;;23.30;99.90;;;23.67;77.67;101490.31;5035286;28;20135;-70
2023/09/08 03:42:08;;;;;;;3.95;3.75;;;23.20;99.90;;;23.45;78.63;101476.09;5067823;28;20064;-70
2023/09/08 03:44:36;;;;;;;2.20;2.10;;;23.00;99.90;;;23.29;79.09;101480.41;5048083;28;20060;-70
2023/09/08 03:47:05;;;;;;;1.83;1.77;;;22.90;99.90;;;23.32;79.33;101488.44;5048753;28;20497;-70
2023/09/08 03:49:33;;;;;;;2.17;2.08;;;22.80;99.90;;;23.25;79.47;101481.50;5035437;28;20045;-70
2023/09/08 03:52:02;;;;;;;2.35;2.25;;;22.80;99.90;;;23.20;80.01;101489.84;5068121;28;20072;-70
2023/09/08 03:54:31;;;;;;;1.90;1.80;;;22.70;99.90;;;23.12;80.46;101488.44;5038670;28;20041;-70
2023/09/08 03:56:59;;;;;;;3.80;2.25;;;22.60;99.90;;;23.15;80.57;101491.88;5048211;28;20471;-70
2023/09/08 03:59:29;;;;;;;2.17;2.08;;;22.60;99.90;;;23.12;80.42;101478.53;5063069;28;20222;-70
2023/09/08 04:01:57;;;;;;;2.00;1.90;;;22.60;99.90;;;23.08;80.54;101481.44;5041632;28;20049;-70
2023/09/08 04:04:26;;;;;;;1.92;1.83;;;22.60;99.90;;;23.06;81.09;101492.28;5039426;28;20041;-70
2023/09/08 04:06:54;;;;;;;2.10;2.00;;;22.50;99.90;;;23.03;81.39;101480.78;5048585;28;20116;-70
2023/09/08 04:09:22;;;;;;;2.00;1.90;;;22.50;99.90;;;23.09;81.13;101486.75;5037761;28;20045;-70
2023/09/08 04:11:51;;;;;;;2.33;2.22;;;22.60;99.90;;;23.06;81.23;101484.19;5043223;28;20091;-70
2023/09/08 04:14:19;;;;;;;1.88;1.80;;;22.50;99.90;;;23.02;81.48;101490.69;5046306;28;20488;-70
2023/09/08 04:16:49;;;;;;;1.75;1.73;;;22.50;99.90;;;23.00;81.53;101486.28;5036438;28;20057;-70
2023/09/08 04:19:17;;;;;;;2.00;1.90;;;22.50;99.90;;;23.10;81.31;101483.13;5046821;28;20038;-70
2023/09/08 04:21:45;;;;;;;2.13;2.03;;;22.60;99.90;;;23.16;80.68;101482.84;5042222;28;20045;-70
2023/09/08 04:24:14;;;;;;;1.85;1.80;;;22.70;99.90;;;23.07;81.29;101494.03;5037745;28;20116;-70
2023/09/08 04:26:42;;;;;;;1.88;1.80;;;22.60;99.90;;;23.10;81.12;101484.94;5048451;28;20049;-70
2023/09/08 04:29:11;;;;;;;2.00;1.90;;;22.60;99.90;;;23.18;81.03;101485.47;5047120;28;20045;-70
2023/09/08 04:31:39;;;;;;;2.00;1.90;;;22.70;99.90;;;23.18;80.60;101496.25;5044785;28;20041;-70
2023/09/08 04:34:09;;;;;;;1.88;1.80;;;22.70;99.90;;;23.12;80.97;101496.53;5050918;28;20144;-70
2023/09/08 04:36:37;;;;;;;2.30;2.20;;;22.60;99.90;;;23.18;80.72;101493.56;5051569;28;20057;-70
2023/09/08 04:39:08;;;;;;;1.80;1.75;;;22.70;99.90;;;23.31;80.39;101497.47;5042054;28;20290;-70
2023/09/08 04:41:37;;;;;;;3.70;3.50;;;22.80;99.90;;;23.39;79.86;101494.41;5050901;28;20136;-70
2023/09/08 04:44:06;;;;;;;2.00;1.90;;;22.90;99.90;;;23.49;79.27;101498.41;5049081;28;20041;-70
2023/09/08 04:46:36;;;;;;;1.70;1.70;;;23.00;99.90;;;23.57;78.90;101507.91;5054263;28;20064;-70
2023/09/08 04:49:05;;;;;;;1.77;1.77;;;23.10;99.90;;;23.55;78.62;101504.41;5047953;28;20111;-70
2023/09/08 04:51:35;;;;;;;2.00;1.90;;;23.10;99.90;;;23.50;80.10;101497.50;5062845;28;20053;-70
2023/09/08 04:54:04;;;;;;;1.85;1.80;;;23.10;99.90;;;23.54;79.89;101499.09;5071121;28;20045;-70
2023/09/08 04:56:33;;;;;;;2.05;1.95;;;23.10;99.90;;;23.48;80.86;101502.94;5053910;28;20048;-70
2023/09/08 04:59:02;;;;;;;2.00;1.90;;;23.00;99.90;;;23.34;80.61;101491.94;5050815;28;20049;-70
2023/09/08 05:01:32;;;;;;;1.92;1.83;;;22.90;99.90;;;23.18;81.29;101499.84;5047781;28;20048;-70
2023/09/08 05:04:02;;;;;;;2.13;2.03;;;22.70;99.90;;;23.19;81.14;101503.38;5051645;28;20049;-70
2023/09/08 05:06:30;;;;;;;1.60;1.60;;;22.70;99.90;;;23.09;80.93;101499.38;5050709;28;20091;-70
2023/09/08 05:09:01;;;;;;;2.95;2.85;;;22.60;99.90;;;23.02;80.57;101503.28;5043102;28;20407;-70
2023/09/08 05:11:30;;;;;;;2.00;1.90;;;22.50;99.90;;;23.00;81.26;101505.19;5050729;28;20041;-70
2023/09/08 05:13:59;;;;;;;2.03;1.92;;;22.50;99.90;;;23.00;81.46;101497.09;5049993;28;20498;-70
2023/09/08 05:16:37;;;;;;;1.60;1.60;;;22.50;99.90;;;23.03;81.40;101502.38;5039778;28;20049;-70
2023/09/08 05:19:07;;;;;;;2.10;2.00;;;22.50;99.90;;;23.04;81.72;101505.00;5050801;28;20553;-70
2023/09/08 05:21:38;;;;;;;1.70;1.70;;;22.50;99.90;;;23.05;81.56;101504.03;5066199;28;20118;-70
2023/09/08 05:24:08;;;;;;;2.28;2.17;;;22.50;99.90;;;23.05;81.65;101505.88;5037624;28;20041;-70
2023/09/08 05:26:42;;;;;;;2.10;2.00;;;22.60;99.90;;;23.10;81.37;101504.72;5050382;28;20046;-70
2023/09/08 05:29:10;;;;;;;1.70;1.70;;;22.60;99.90;;;23.16;81.16;101508.94;5047968;28;20043;-71
2023/09/08 05:31:39;;;;;;;2.00;1.90;;;22.60;99.90;;;22.93;81.83;101501.03;5037888;28;20071;-70
2023/09/08 05:34:08;;;;;;;2.00;1.90;;;22.60;99.90;;;23.08;81.67;101509.31;5064322;28;20495;-70
2023/09/08 05:36:38;;;;;;;1.77;1.77;;;22.60;99.90;;;22.98;81.63;101515.16;5043627;28;20053;-70
2023/09/08 05:39:08;;;;;;;1.85;1.80;;;22.50;99.90;;;23.05;81.98;101505.88;5055821;28;20140;-70
2023/09/08 05:41:36;;;;;;;1.88;1.80;;;22.50;99.90;;;23.04;81.85;101507.69;5050033;28;20049;-70
2023/09/08 05:44:06;;;;;;;2.03;1.92;;;22.60;99.90;;;23.14;81.47;101527.91;5039027;28;20044;-70
2023/09/08 05:46:34;;;;;;;1.95;1.85;;;22.60;99.90;;;23.26;81.18;101515.69;5069989;28;20143;-71
2023/09/08 05:49:03;;;;;;;2.03;1.92;;;22.70;99.90;;;23.43;81.20;101521.19;5049939;28;20467;-70
2023/09/08 05:51:32;;;;;;;2.17;2.08;;;22.90;99.90;;;23.62;81.67;101516.66;5049424;28;20037;-70
2023/09/08 05:54:02;;;;;;;4.13;3.75;;;23.10;99.90;;;23.79;81.52;101524.84;5039992;28;20490;-70
2023/09/08 05:56:35;;;;;;;1.95;1.85;;;23.30;99.90;;;23.84;79.53;101500.31;5069620;28;20048;-70
2023/09/08 05:59:03;;;;;;;1.98;1.88;;;23.50;99.90;;;24.00;78.27;101521.06;5038809;28;20045;-70
2023/09/08 06:01:33;;;;;;;6.55;5.90;;;23.60;99.90;;;24.33;77.76;101533.91;5050672;28;20060;-70
2023/09/08 06:04:04;;;;;;;1.95;1.85;;;23.80;99.90;;;24.40;76.67;101541.63;5058029;28;20053;-70
2023/09/08 06:06:33;;;;;;;1.95;1.85;;;23.90;99.90;;;24.65;75.37;101538.53;5069667;28;20077;-70
2023/09/08 06:09:02;;;;;;;1.90;1.80;;;24.10;99.90;;;24.76;76.06;101539.78;5037709;28;20099;-70
2023/09/08 06:11:32;;;;;;;1.65;1.65;;;24.20;99.90;;;24.78;75.10;101547.78;5049117;28;20045;-70
2023/09/08 06:14:01;;;;;;;1.88;1.83;;;24.20;99.90;;;24.74;74.46;101546.22;5058670;28;20099;-70
2023/09/08 06:16:35;;;;;;;3.72;3.47;;;24.20;99.90;;;24.77;74.36;101541.53;5069303;28;20045;-70
2023/09/08 06:19:04;;;;;;;1.50;1.50;;;24.30;99.90;;;24.95;74.78;101547.81;5051253;28;20050;-70
2023/09/08 06:21:32;;;;;;;1.58;1.58;;;24.40;99.90;;;25.08;73.79;101551.63;5047526;28;20533;-70
2023/09/08 06:24:01;;;;;;;1.83;1.80;;;24.60;99.90;;;25.15;73.58;101546.72;5042918;28;20087;-70
2023/09/08 06:26:29;;;;;;;1.80;1.70;;;24.60;99.90;;;25.35;73.16;101546.53;5053740;28;20036;-71
2023/09/08 06:28:59;;;;;;;2.33;2.15;;;24.80;99.90;;;25.25;72.96;101542.56;5051485;28;20410;-70
2023/09/08 06:31:28;;;;;;;2.05;1.95;;;24.80;99.90;;;25.28;73.11;101543.25;5047086;28;20077;-70
2023/09/08 06:33:57;;;;;;;1.90;1.83;;;24.80;99.90;;;25.36;73.39;101548.28;5043137;28;20569;-71
2023/09/08 06:36:26;;;;;;;1.85;1.75;;;24.80;99.90;;;25.50;72.85;101541.19;5048455;28;20057;-71
2023/09/08 06:38:55;;;;;;;2.15;2.05;;;25.00;99.90;;;25.70;72.75;101543.66;5048000;28;20111;-70
2023/09/08 06:41:23;;;;;;;1.65;1.65;;;25.20;99.90;;;25.68;72.63;101548.28;5039057;28;20057;-70
2023/09/08 06:43:54;;;;;;;1.48;1.48;;;25.20;99.90;;;25.99;71.54;101550.13;5068424;28;20090;-71
2023/09/08 06:46:25;;;;;;;1.40;1.40;;;25.50;99.90;;;26.33;71.79;101551.78;5048704;28;20045;-71
2023/09/08 06:48:54;;;;;;;;;;;25.80;99.90;;;26.34;70.76;101553.53;5036856;28;20059;-71
2023/09/08 06:51:22;;;;;;;1.50;1.50;;;25.90;99.90;;;26.47;70.98;101549.13;5044671;28;20020;-71
2023/09/08 06:53:56;;;;;;;1.40;1.40;;;26.00;99.90;;;26.53;70.66;101556.91;5043842;28;20049;-71
2023/09/08 06:56:29;;;;;;;1.80;1.73;;;26.10;99.90;;;26.52;71.33;101549.72;5064662;28;20562;-70
2023/09/08 06:58:58;;;;;;;1.73;1.63;;;26.00;99.90;;;26.30;71.11;101550.13;5037607;28;20099;-70
2023/09/08 07:01:29;;;;;;;1.60;1.60;;;25.80;99.90;;;26.26;71.62;101550.41;5048272;28;20076;-70
2023/09/08 07:03:58;;;;;;;2.13;2.08;;;25.70;99.90;;;26.71;70.36;101558.56;5047816;28;20052;-71
2023/09/08 07:06:27;;;;;;;1.85;1.75;;;26.10;99.90;;;27.02;70.24;101563.00;5036649;28;20045;-70
2023/09/08 07:08:57;;;;;;;1.35;1.35;;;26.50;99.90;;;26.76;69.24;101562.75;5046195;28;20487;-70
2023/09/08 07:11:26;;;;;;;2.25;2.15;;;26.40;99.90;;;26.48;70.17;101561.75;5042918;28;20083;-70
2023/09/08 07:13:54;;;;;;;1.92;1.83;;;26.00;99.90;;;26.60;70.94;101558.28;5052858;28;20041;-70
2023/09/08 07:16:23;;;;;;;2.17;2.08;;;26.00;99.90;;;26.67;70.24;101559.69;5051033;28;20072;-70
2023/09/08 07:18:53;;;;;;;1.60;1.60;;;26.20;99.90;;;26.74;71.00;101559.25;5048013;28;20049;-71
2023/09/08 07:21:21;;;;;;;3.05;2.85;;;26.20;99.90;;;26.63;69.94;101566.25;5044772;28;20052;-70
2023/09/08 07:23:50;;;;;;;2.35;2.25;;;26.20;99.90;;;26.67;71.05;101565.13;5048375;28;20049;-70
2023/09/08 07:26:19;;;;;;;1.77;1.77;;;26.10;99.90;;;26.56;71.54;101565.75;5035572;28;20045;-70
2023/09/08 07:28:48;;;;;;;1.67;1.67;;;26.00;99.90;;;26.37;72.66;101558.78;5048310;28;20136;-70
2023/09/08 07:31:17;;;;;;;2.20;2.00;;;25.80;99.90;;;26.52;72.68;101563.28;5044853;28;20447;-70
2023/09/08 07:33:48;;;;;;;1.70;1.70;;;25.90;99.90;;;26.25;72.25;101564.94;5048860;28;20045;-70
2023/09/08 07:36:18;;;;;;;2.05;1.95;;;25.70;99.90;;;26.23;73.94;101565.00;5047847;28;20107;-70
2023/09/08 07:38:47;;;;;;;;;;;25.70;99.90;;;26.10;74.58;101565.81;5041151;28;20144;-70
2023/09/08 07:41:16;;;;;;;4.38;4.07;;;25.50;99.90;;;26.18;75.19;101566.25;5054673;28;19921;-70
2023/09/08 07:43:45;;;;;;;2.10;2.00;;;25.60;99.90;;;26.26;74.73;101561.25;5048882;28;20082;-70
2023/09/08 07:46:17;;;;;;;2.38;2.28;;;25.70;99.90;;;26.45;75.12;101573.66;5037531;28;20069;-70
2023/09/08 07:48:46;;;;;;;2.42;2.33;;;25.90;99.90;;;26.62;75.27;101567.22;5052436;28;20045;-70
2023/09/08 07:51:14;;;;;;;2.20;2.00;;;26.10;99.90;;;26.92;74.28;101568.13;5038023;28;20046;-70
2023/09/08 07:53:44;;;;;;;1.80;1.70;;;26.40;99.90;;;27.15;74.92;101567.59;5048386;28;20135;-71
2023/09/08 07:56:12;;;;;;;1.40;1.40;;;26.60;99.90;;;27.73;72.99;101567.53;5037482;28;20075;-71
2023/09/08 07:58:41;;;;;;;1.20;1.20;;;27.20;99.90;;;28.11;71.52;101576.78;5041020;28;20483;-71
2023/09/08 08:01:09;;;;;;;1.95;1.85;;;27.70;99.90;;;28.21;70.63;101583.38;5046833;28;20045;-71
2023/09/08 08:03:37;;;;;;;1.73;1.63;;;27.80;99.90;;;28.38;70.74;101572.25;5036164;28;20471;-71
2023/09/08 08:06:06;;;;;;;1.40;1.40;;;28.00;99.90;;;28.68;70.23;101574.78;5048798;28;20045;-71
2023/09/08 08:08:38;;;;;;;1.30;1.30;;;28.30;99.90;;;29.05;69.54;101584.00;5046767;28;20057;-71
2023/09/08 08:11:12;;;;;;;2.00;1.90;;;28.70;99.90;;;29.46;66.01;101583.84;5040489;28;20041;-71
2023/09/08 08:13:41;;;;;;;1.17;1.17;;;29.10;99.90;;;29.73;65.60;101584.59;5040898;28;20049;-71
2023/09/08 08:16:09;;;;;;;1.30;1.30;;;29.50;99.90;;;30.06;63.97;101585.72;5047303;28;20407;-71
2023/09/08 08:18:37;;;;;;;0.90;0.90;;;29.80;99.90;;;30.31;63.26;101586.66;5047637;28;20468;-71
2023/09/08 08:21:06;;;;;;;1.85;1.75;;;30.10;99.90;;;30.67;62.63;101586.56;5055170;28;20041;-71
2023/09/08 08:23:36;;;;;;;0.98;0.98;;;30.30;99.90;;;31.00;60.43;101595.81;5040872;28;20044;-71
2023/09/08 08:26:04;;;;;;;1.00;1.00;;;30.70;99.90;;;31.21;59.73;101590.50;5062600;28;20110;-71
2023/09/08 08:28:34;;;;;;;1.23;1.23;;;31.00;99.90;;;31.49;58.11;101590.09;5049151;28;20041;-71
2023/09/08 08:31:03;;;;;;;3.42;3.15;;;31.20;99.90;;;31.55;57.55;101596.94;5039783;28;20080;-71
2023/09/08 08:33:33;;;;;;;1.55;1.45;;;31.30;99.90;;;31.80;58.04;101593.97;5049971;28;20124;-71
2023/09/08 08:36:01;;;;;;;1.53;1.53;;;31.50;99.90;;;32.08;56.67;101592.56;5045879;28;20144;-71
2023/09/08 08:38:30;;;;;;;0.82;0.82;;;31.80;99.90;;;32.28;56.17;101597.28;5041655;28;20681;-71
2023/09/08 08:41:04;;;;;;;0.80;0.80;;;32.00;99.90;;;32.49;55.46;101596.38;5053160;28;20071;-71
2023/09/08 08:43:35;;;;;;;1.00;1.00;;;32.20;99.90;;;32.67;54.74;101600.31;5048800;28;20041;-71
2023/09/08 08:46:05;;;;;;;1.00;1.00;;;32.40;99.90;;;32.89;53.43;101603.97;5047222;28;20056;-71
2023/09/08 08:48:34;;;;;;;;;;;32.60;99.90;;;33.13;52.76;101602.72;5040276;28;20123;-71
2023/09/08 08:51:04;;;;;;;1.53;1.53;;;32.80;99.90;;;33.13;51.61;101574.41;5039057;28;19927;-71
2023/09/08 08:53:33;;;;;;;1.00;1.00;;;33.10;99.90;;;33.25;51.81;101609.00;5047690;28;20100;-71
2023/09/08 08:56:03;;;;;;;0.75;0.75;;;33.00;99.90;;;33.23;51.42;101602.78;5046472;28;20052;-71
2023/09/08 08:58:36;;;;;;;0.70;0.70;;;33.00;99.90;;;33.47;50.89;101606.16;5054561;28;20436;-71
2023/09/08 09:01:05;;;;;;;0.70;0.70;;;33.20;99.90;;;33.70;50.58;101613.22;5040315;28;20053;-71
2023/09/08 09:03:37;;;;;;;1.48;1.40;;;33.40;99.90;;;33.80;50.15;101614.09;5045802;28;20049;-72
2023/09/08 09:06:06;;;;;;;0.80;0.80;;;33.50;99.90;;;33.90;50.94;101616.91;5049160;28;20041;-71
2023/09/08 09:08:35;;;;;;;0.70;0.70;;;33.70;99.90;;;34.05;49.61;101610.91;5038124;28;20063;-71
2023/09/08 09:11:04;;;;;;;2.22;2.05;;;33.80;99.90;;;34.15;48.72;101609.06;5048483;28;20048;-71
2023/09/08 09:13:34;;;;;;;0.70;0.70;;;33.90;99.90;;;34.32;49.21;101613.03;5044497;28;20052;-71
2023/09/08 09:16:03;;;;;;;0.80;0.80;;;34.10;99.90;;;34.47;48.85;101615.28;5069165;28;20445;-71
2023/09/08 09:18:32;;;;;;;0.98;0.98;;;34.20;99.90;;;34.62;48.34;101620.34;5038341;28;20084;-72
2023/09/08 09:21:02;;;;;;;0.75;0.75;;;34.30;99.90;;;34.82;48.87;101616.59;5048226;28;20060;-72
2023/09/08 09:23:32;;;;;;;0.70;0.70;;;34.50;99.90;;;34.80;47.79;101611.25;5046012;28;20045;-72
2023/09/08 09:26:03;;;;;;;0.60;0.60;;;34.60;99.90;;;34.88;47.76;101616.91;5039216;28;20042;-72
2023/09/08 09:28:32;;;;;;;0.70;0.70;;;34.60;99.90;;;35.07;48.20;101618.78;5038829;28;20091;-71
2023/09/08 09:31:02;;;;;;;0.60;0.60;;;34.80;99.90;;;35.23;47.72;101619.91;5046536;28;20041;-71
2023/09/08 09:33:31;;;;;;;0.98;0.98;;;35.00;99.90;;;35.22;47.13;101618.19;5047530;28;20053;-71
2023/09/08 09:36:00;;;;;;;1.73;1.63;;;35.00;99.90;;;35.15;46.45;101613.44;5038416;28;20377;-71
2023/09/08 09:38:29;;;;;;;1.35;1.25;;;34.90;99.90;;;35.13;47.79;101616.34;5050184;28;20455;-72
2023/09/08 09:40:58;;;;;;;0.93;0.93;;;34.90;99.90;;;34.91;46.97;101615.72;5043612;28;20048;-72
2023/09/08 09:43:30;;;;;;;1.35;1.35;;;34.70;99.90;;;34.86;48.05;101612.53;5050129;28;20503;-72
2023/09/08 09:45:58;;;;;;;1.80;1.67;;;34.50;99.90;;;34.76;47.01;101603.41;5050764;28;20049;-71
2023/09/08 09:48:29;;;;;;;0.70;0.70;;;34.50;99.90;;;34.47;47.56;101609.78;5040026;28;20045;-72
2023/09/08 09:50:57;;;;;;;0.70;0.70;;;34.20;99.90;;;34.46;48.07;101607.13;5044599;28;20046;-72
2023/09/08 09:53:26;;;;;;;0.68;0.68;;;34.20;99.90;;;34.50;47.50;101603.09;5048573;28;20040;-71
2023/09/08 09:55:55;;;;;;;0.80;0.80;;;34.20;99.90;;;34.67;47.88;101598.78;5037932;28;20076;-71
2023/09/08 09:58:24;;;;;;;0.90;0.90;;;34.30;99.90;;;34.66;47.08;101602.53;5047942;28;20045;-72
2023/09/08 10:00:54;;;;;;;0.70;0.70;;;34.40;99.90;;;34.86;46.06;101607.03;5044519;28;20410;-72
2023/09/08 10:03:24;;;;;;;1.00;1.00;;;34.50;99.90;;;34.72;46.29;101607.47;5038861;28;20434;-71
2023/09/08 10:05:54;;;;;;;;;;;34.50;99.90;;;35.08;45.96;101602.13;5050725;28;20081;-72
2023/09/08 10:08:23;;;;;;;0.70;0.70;;;34.70;99.90;;;34.90;45.91;101609.34;5040927;28;19929;-71
2023/09/08 10:10:51;;;;;;;0.70;0.70;;;34.70;99.90;;;34.75;45.47;101601.69;5042344;28;20045;-72
2023/09/08 10:13:27;;;;;;;0.70;0.70;;;34.50;99.90;;;34.32;46.50;101602.88;5049238;28;20045;-72
2023/09/08 10:15:59;;;;;;;1.67;1.58;;;34.20;99.90;;;34.63;46.63;101600.09;5038694;28;20045;-71
2023/09/08 10:18:30;;;;;;;0.80;0.80;;;34.20;99.90;;;34.97;45.59;101605.03;5044987;28;20107;-72
2023/09/08 10:21:05;;;;;;;2.38;1.42;;;34.60;99.90;;;35.29;46.04;101618.44;5047418;28;20099;-72